createdAt,value
2018-06-24T13:12:52.938Z,19.88
2018-06-24T13:15:21.413Z,19.99
2018-06-24T13:17:49.760Z,19.80
2018-06-24T13:20:18.342Z,19.81
2018-06-24T13:22:46.784Z,20.02
2018-06-24T13:25:15.338Z,20.11
2018-06-24T13:27:43.791Z,20.23
2018-06-24T13:30:12.632Z,20.14
2018-06-24T13:32:41.264Z,20.18
2018-06-24T13:35:10.182Z,20.09
2018-06-24T13:37:38.467Z,19.91
2018-06-24T13:40:07.046Z,19.89
2018-06-24T13:42:35.392Z,20.23
2018-06-24T13:45:06.109Z,20.72
2018-06-24T13:47:34.839Z,21.06
2018-06-24T13:50:03.719Z,21.28
2018-06-24T13:52:32.353Z,21.30
2018-06-24T13:55:00.889Z,21.10
2018-06-24T13:57:29.524Z,20.54
2018-06-24T13:59:58.049Z,20.03
2018-06-24T14:02:26.409Z,20.04
2018-06-24T14:04:55.073Z,19.67
2018-06-24T14:07:23.750Z,19.85
2018-06-24T14:09:52.671Z,20.02
2018-06-24T14:12:21.357Z,20.05
2018-06-24T14:14:50.208Z,20.03
2018-06-24T14:17:19.160Z,19.97
2018-06-24T14:19:47.557Z,19.95
2018-06-24T14:22:16.189Z,19.98
2018-06-24T14:24:45.095Z,19.74
2018-06-24T14:27:13.715Z,19.62
2018-06-24T14:29:42.472Z,19.46
2018-06-24T14:32:11.514Z,19.39
2018-06-24T14:34:40.191Z,19.51
2018-06-24T14:37:08.840Z,19.41
2018-06-24T14:39:37.233Z,19.42
2018-06-24T14:42:05.892Z,19.26
2018-06-24T14:44:34.526Z,19.08
2018-06-24T14:47:03.368Z,19.23
2018-06-24T14:49:32.090Z,19.55
2018-06-24T14:52:00.773Z,19.80
2018-06-24T14:54:29.495Z,19.71
2018-06-24T14:56:58.107Z,19.88
2018-06-24T14:59:26.723Z,19.65
2018-06-24T15:01:55.593Z,19.97
2018-06-24T15:04:24.073Z,19.99
2018-06-24T15:06:52.778Z,19.71
2018-06-24T15:09:21.690Z,19.74
2018-06-24T15:11:50.389Z,19.82
2018-06-24T15:14:18.754Z,19.41
2018-06-24T15:16:47.631Z,19.25
2018-06-24T15:19:16.188Z,19.36
2018-06-24T15:21:44.668Z,19.38
2018-06-24T15:24:13.220Z,19.26
2018-06-24T15:26:41.877Z,19.26
2018-06-24T15:29:10.384Z,19.20
2018-06-24T15:31:38.705Z,18.93
2018-06-24T15:34:07.657Z,19.03
2018-06-24T15:36:36.378Z,18.74
2018-06-24T15:39:09.194Z,18.74
2018-06-24T15:41:38.097Z,18.67
2018-06-24T15:44:07.355Z,18.55
2018-06-24T15:46:36.430Z,18.64
2018-06-24T15:49:05.226Z,18.57
2018-06-24T15:51:33.770Z,18.29
2018-06-24T15:54:02.712Z,18.35
2018-06-24T15:56:31.480Z,18.22
2018-06-24T15:59:00.042Z,18.32
2018-06-24T16:01:28.419Z,18.36
2018-06-24T16:03:57.092Z,18.52
2018-06-24T16:06:25.487Z,18.58
2018-06-24T16:08:54.036Z,18.69
2018-06-24T16:11:22.541Z,18.79
2018-06-24T16:13:51.173Z,18.87
2018-06-24T16:16:19.727Z,18.93
2018-06-24T16:18:48.404Z,19.06
2018-06-24T16:21:17.028Z,19.08
2018-06-24T16:23:46.023Z,19.10
2018-06-24T16:26:14.884Z,18.89
2018-06-24T16:28:43.494Z,18.66
2018-06-24T16:31:12.430Z,18.65
2018-06-24T16:33:40.949Z,18.52
2018-06-24T16:36:09.476Z,18.57
2018-06-24T16:38:38.001Z,18.70
2018-06-24T16:41:06.613Z,18.66
2018-06-24T16:43:35.680Z,18.56
2018-06-24T16:46:04.431Z,18.39
2018-06-24T16:48:33.115Z,18.40
2018-06-24T16:51:01.796Z,18.32
2018-06-24T16:53:30.456Z,18.33
2018-06-24T16:55:59.266Z,18.22
2018-06-24T16:58:27.901Z,18.29
2018-06-24T17:00:56.488Z,18.21
2018-06-24T17:03:24.833Z,18.40
2018-06-24T17:05:53.745Z,18.54
2018-06-24T17:08:22.510Z,18.47
2018-06-24T17:10:51.051Z,18.40
2018-06-24T17:13:19.746Z,18.41
2018-06-24T17:15:48.351Z,18.45
2018-06-24T17:18:16.871Z,18.36
2018-06-24T17:20:45.501Z,18.36
2018-06-24T17:23:14.207Z,18.36
2018-06-24T17:25:42.843Z,18.45
2018-06-24T17:28:11.364Z,18.56
2018-06-24T17:30:40.076Z,18.74
2018-06-24T17:33:09.048Z,18.73
2018-06-24T17:35:37.763Z,18.72
2018-06-24T17:38:06.791Z,18.72
2018-06-24T17:40:35.121Z,18.73
2018-06-24T17:43:03.799Z,18.69
2018-06-24T17:45:32.607Z,18.65
2018-06-24T17:48:01.430Z,18.67
2018-06-24T17:50:29.780Z,18.49
2018-06-24T17:52:58.808Z,18.55
2018-06-24T17:55:27.841Z,18.51
2018-06-24T17:57:56.445Z,18.42
2018-06-24T18:00:25.011Z,18.42
2018-06-24T18:02:53.470Z,18.24
2018-06-24T18:05:22.218Z,18.26
2018-06-24T18:07:50.664Z,18.17
2018-06-24T18:10:19.121Z,18.22
2018-06-24T18:12:47.736Z,18.15
2018-06-24T18:15:16.488Z,18.19
2018-06-24T18:17:45.241Z,18.35
2018-06-24T18:20:13.856Z,18.31
2018-06-24T18:22:42.444Z,18.17
2018-06-24T18:25:11.342Z,18.14
2018-06-24T18:27:40.074Z,18.17
2018-06-24T18:30:09.348Z,18.18
2018-06-24T18:32:38.339Z,18.16
2018-06-24T18:35:06.903Z,18.31
2018-06-24T18:37:35.774Z,18.29
2018-06-24T18:40:04.469Z,18.25
2018-06-24T18:42:32.990Z,18.18
2018-06-24T18:45:01.484Z,18.15
2018-06-24T18:47:30.032Z,18.10
2018-06-24T18:49:58.538Z,18.01
2018-06-24T18:52:27.449Z,17.94
2018-06-24T18:54:56.240Z,17.99
2018-06-24T18:57:25.248Z,17.86
2018-06-24T18:59:53.925Z,17.69
2018-06-24T19:02:22.689Z,17.53
2018-06-24T19:04:51.332Z,17.26
2018-06-24T19:07:21.209Z,17.41
2018-06-24T19:09:49.761Z,17.27
2018-06-24T19:12:18.066Z,17.25
2018-06-24T19:14:46.737Z,17.11
2018-06-24T19:17:15.513Z,17.18
2018-06-24T19:19:44.272Z,17.18
2018-06-24T19:22:12.754Z,16.97
2018-06-24T19:24:41.327Z,16.78
2018-06-24T19:27:10.007Z,16.84
2018-06-24T19:29:38.491Z,16.93
2018-06-24T19:32:07.233Z,16.82
2018-06-24T19:34:35.845Z,16.59
2018-06-24T19:37:04.856Z,16.63
2018-06-24T19:39:33.514Z,16.70
2018-06-24T19:42:02.196Z,16.80
2018-06-24T19:44:30.946Z,16.84
2018-06-24T19:46:59.471Z,16.94
2018-06-24T19:49:28.264Z,17.01
2018-06-24T19:51:57.669Z,16.89
2018-06-24T19:54:26.448Z,16.97
2018-06-24T19:56:55.018Z,17.05
2018-06-24T19:59:23.605Z,17.02
2018-06-24T20:01:52.196Z,17.00
2018-06-24T20:04:20.592Z,16.97
2018-06-24T20:06:49.372Z,17.05
2018-06-24T20:09:17.998Z,16.92
2018-06-24T20:11:46.720Z,16.97
2018-06-24T20:14:15.516Z,16.89
2018-06-24T20:16:44.227Z,17.02
2018-06-24T20:19:12.908Z,17.05
2018-06-24T20:21:41.300Z,16.86
2018-06-24T20:24:10.312Z,16.77
2018-06-24T20:26:39.385Z,16.69
2018-06-24T20:29:07.761Z,16.63
2018-06-24T20:31:36.368Z,16.48
2018-06-24T20:34:04.904Z,16.46
2018-06-24T20:36:33.554Z,16.51
2018-06-24T20:39:02.197Z,16.65
2018-06-24T20:41:30.975Z,16.67
2018-06-24T20:43:59.509Z,16.66
2018-06-24T20:46:28.432Z,16.62
2018-06-24T20:48:57.144Z,16.52
2018-06-24T20:51:25.715Z,16.47
2018-06-24T20:53:54.580Z,16.45
2018-06-24T20:56:23.272Z,16.44
2018-06-24T20:58:52.037Z,16.40
2018-06-24T21:01:20.748Z,16.55
2018-06-24T21:03:49.499Z,16.41
2018-06-24T21:06:18.052Z,16.40
2018-06-24T21:08:46.853Z,16.33
2018-06-24T21:11:15.324Z,16.37
2018-06-24T21:13:43.907Z,16.45
2018-06-24T21:16:12.480Z,16.47
2018-06-24T21:18:41.223Z,16.41
2018-06-24T21:21:10.270Z,16.42
2018-06-24T21:23:39.047Z,16.37
2018-06-24T21:26:07.753Z,16.07
2018-06-24T21:28:36.183Z,16.11
2018-06-24T21:31:04.901Z,15.98
2018-06-24T21:33:33.365Z,16.01
2018-06-24T21:36:02.053Z,16.23
2018-06-24T21:38:30.574Z,16.19
2018-06-24T21:40:59.361Z,16.12
2018-06-24T21:43:28.061Z,16.13
2018-06-24T21:45:56.636Z,16.10
2018-06-24T21:48:25.359Z,16.20
2018-06-24T21:50:53.951Z,16.11
2018-06-24T21:53:22.584Z,16.03
2018-06-24T21:55:51.328Z,16.03
2018-06-24T21:58:19.773Z,16.06
2018-06-24T22:00:48.620Z,15.95
2018-06-24T22:03:17.185Z,16.01
2018-06-24T22:05:51.902Z,15.88
2018-06-24T22:08:20.505Z,15.90
2018-06-24T22:10:49.329Z,15.96
2018-06-24T22:13:17.858Z,15.97
2018-06-24T22:15:46.393Z,16.02
2018-06-24T22:18:14.884Z,15.97
2018-06-24T22:20:43.482Z,16.11
2018-06-24T22:23:11.754Z,16.09
2018-06-24T22:25:40.405Z,16.00
2018-06-24T22:28:08.900Z,16.08
2018-06-24T22:30:37.579Z,16.08
2018-06-24T22:33:06.173Z,16.05
2018-06-24T22:35:34.715Z,16.13
2018-06-24T22:38:03.457Z,16.16
2018-06-24T22:40:32.036Z,16.19
2018-06-24T22:43:00.644Z,16.19
2018-06-24T22:45:28.878Z,16.26
2018-06-24T22:47:57.520Z,16.31
2018-06-24T22:50:26.165Z,16.32
2018-06-24T22:52:54.643Z,16.27
2018-06-24T22:55:23.632Z,16.33
2018-06-24T22:57:52.009Z,16.46
2018-06-24T23:00:20.679Z,16.49
2018-06-24T23:02:49.280Z,16.41
2018-06-24T23:05:17.788Z,16.30
2018-06-24T23:07:46.639Z,16.20
2018-06-24T23:10:15.219Z,16.23
2018-06-24T23:12:43.845Z,16.28
2018-06-24T23:15:12.723Z,16.26
2018-06-24T23:17:41.360Z,16.20
2018-06-24T23:20:10.269Z,16.22
2018-06-24T23:22:39.062Z,16.24
2018-06-24T23:25:08.004Z,16.45
2018-06-24T23:27:36.576Z,16.33
2018-06-24T23:30:05.335Z,16.27
2018-06-24T23:32:34.005Z,16.29
2018-06-24T23:35:02.513Z,16.20
2018-06-24T23:37:31.216Z,16.19
2018-06-24T23:39:59.767Z,16.23
2018-06-24T23:42:28.548Z,16.26
2018-06-24T23:44:57.158Z,16.25
2018-06-24T23:47:25.673Z,16.44
2018-06-24T23:49:53.980Z,16.32
2018-06-24T23:52:22.466Z,16.21
2018-06-24T23:54:51.053Z,16.15
2018-06-24T23:57:19.715Z,16.20
2018-06-24T23:59:48.070Z,16.25
